createdAt,value
2023-03-21T00:00:41.288Z,8.23
2023-03-21T00:03:55.747Z,8.22
2023-03-21T00:06:57.508Z,8.20
2023-03-21T00:10:08.889Z,8.18
2023-03-21T00:13:16.246Z,8.14
2023-03-21T00:16:24.526Z,8.10
2023-03-21T00:19:33.776Z,8.05
2023-03-21T00:22:35.842Z,8.02
2023-03-21T00:25:37.704Z,8.01
2023-03-21T00:28:41.331Z,7.99
2023-03-21T00:31:42.986Z,7.97
2023-03-21T00:34:58.848Z,7.95
2023-03-21T00:38:06.772Z,7.94
2023-03-21T00:41:20.951Z,7.92
2023-03-21T00:44:27.821Z,7.91
2023-03-21T00:47:29.446Z,7.90
2023-03-21T00:50:31.371Z,7.89
2023-03-21T00:53:32.989Z,7.89
2023-03-21T00:56:34.576Z,7.89
2023-03-21T00:59:36.311Z,7.88
2023-03-21T01:02:39.201Z,7.88
2023-03-21T01:05:44.265Z,7.88
2023-03-21T01:08:52.799Z,7.90
2023-03-21T01:11:54.800Z,7.90
2023-03-21T01:14:56.340Z,7.88
2023-03-21T01:17:57.977Z,7.86
2023-03-21T01:21:00.565Z,7.85
2023-03-21T01:24:02.458Z,7.81
2023-03-21T01:27:04.399Z,7.81
2023-03-21T01:30:17.349Z,7.81
2023-03-21T01:33:22.146Z,7.80
2023-03-21T01:36:26.306Z,7.78
2023-03-21T01:39:28.669Z,7.76
2023-03-21T01:42:31.286Z,7.75
2023-03-21T01:46:28.580Z,7.74
2023-03-21T01:49:36.296Z,7.75
2023-03-21T01:52:39.199Z,7.73
2023-03-21T01:55:41.477Z,7.71
2023-03-21T01:58:43.937Z,7.71
2023-03-21T02:01:45.589Z,7.68
2023-03-21T02:04:47.594Z,7.70
2023-03-21T02:07:51.964Z,7.71
2023-03-21T02:10:53.598Z,7.75
2023-03-21T02:14:05.713Z,7.76
2023-03-21T02:17:15.815Z,7.74
2023-03-21T02:20:35.775Z,7.73
2023-03-21T02:24:25.367Z,7.72
2023-03-21T02:27:29.415Z,7.70
2023-03-21T02:30:59.327Z,7.68
2023-03-21T02:34:19.896Z,7.67
2023-03-21T02:37:36.648Z,7.67
2023-03-21T02:40:43.366Z,7.66
2023-03-21T02:43:54.838Z,7.65
2023-03-21T02:47:06.061Z,7.66
2023-03-21T02:50:41.990Z,7.65
2023-03-21T02:53:53.290Z,7.66
2023-03-21T02:57:02.579Z,7.66
2023-03-21T03:00:15.597Z,7.67
2023-03-21T03:03:31.536Z,7.68
2023-03-21T03:06:42.803Z,7.69
2023-03-21T03:10:08.075Z,7.71
2023-03-21T03:13:14.225Z,7.72
2023-03-21T03:16:25.978Z,7.74
2023-03-21T03:19:32.751Z,7.75
2023-03-21T03:22:56.860Z,7.78
2023-03-21T03:26:04.261Z,7.78
2023-03-21T03:29:13.434Z,7.77
2023-03-21T03:32:21.639Z,7.77
2023-03-21T03:35:24.105Z,7.77
2023-03-21T03:38:26.155Z,7.76
2023-03-21T03:41:30.136Z,7.75
2023-03-21T03:44:35.393Z,7.72
2023-03-21T03:47:56.379Z,7.71
2023-03-21T03:51:07.808Z,7.69
2023-03-21T03:54:13.497Z,7.66
2023-03-21T03:57:16.105Z,7.65
2023-03-21T04:00:18.177Z,7.64
2023-03-21T04:03:20.386Z,7.62
2023-03-21T04:06:21.967Z,7.60
2023-03-21T04:09:37.466Z,7.58
2023-03-21T04:12:44.690Z,7.55
2023-03-21T04:15:46.418Z,7.53
2023-03-21T04:18:48.142Z,7.50
2023-03-21T04:21:49.729Z,7.49
2023-03-21T04:24:51.294Z,7.47
2023-03-21T04:27:52.992Z,7.45
2023-03-21T04:31:02.470Z,7.41
2023-03-21T04:34:08.754Z,7.36
2023-03-21T04:37:10.624Z,7.33
2023-03-21T04:40:12.942Z,7.30
2023-03-21T04:43:14.767Z,7.25
2023-03-21T04:46:16.667Z,7.22
2023-03-21T04:49:18.395Z,7.16
2023-03-21T04:52:20.451Z,7.11
2023-03-21T04:55:22.073Z,7.05
2023-03-21T04:58:23.922Z,7.00
2023-03-21T05:01:25.980Z,6.97
2023-03-21T05:04:28.962Z,6.95
2023-03-21T05:07:30.970Z,6.79
2023-03-21T05:10:33.180Z,6.64
2023-03-21T05:13:34.821Z,6.57
2023-03-21T05:16:36.600Z,6.55
2023-03-21T05:19:38.738Z,6.56
2023-03-21T05:22:40.414Z,6.56
2023-03-21T05:25:42.898Z,6.55
2023-03-21T05:28:44.693Z,6.56
2023-03-21T05:31:46.546Z,6.57
2023-03-21T05:34:48.253Z,6.61
2023-03-21T05:37:49.979Z,6.63
2023-03-21T05:40:52.094Z,6.65
2023-03-21T05:43:54.033Z,6.69
2023-03-21T05:46:55.752Z,6.78
2023-03-21T05:49:57.623Z,6.87
2023-03-21T05:52:59.555Z,6.93
2023-03-21T05:56:01.325Z,7.00
2023-03-21T05:59:03.041Z,7.08
2023-03-21T06:02:04.737Z,7.17
2023-03-21T06:05:06.928Z,7.26
2023-03-21T06:08:08.905Z,7.35
2023-03-21T06:11:39.345Z,7.41
2023-03-21T06:14:41.026Z,7.45
2023-03-21T06:17:42.497Z,7.48
2023-03-21T06:20:44.093Z,7.53
2023-03-21T06:23:45.776Z,7.59
2023-03-21T06:26:47.920Z,7.68
2023-03-21T06:29:49.480Z,7.73
2023-03-21T06:32:51.124Z,7.80
2023-03-21T06:35:54.242Z,7.93
2023-03-21T06:38:56.005Z,8.03
2023-03-21T06:41:57.794Z,8.10
2023-03-21T06:44:59.574Z,8.15
2023-03-21T06:48:01.197Z,8.14
2023-03-21T06:51:02.902Z,8.12
2023-03-21T06:54:04.709Z,8.09
2023-03-21T06:57:06.253Z,8.08
2023-03-21T07:00:08.859Z,8.05
2023-03-21T07:03:11.567Z,8.03
2023-03-21T07:06:13.455Z,8.09
2023-03-21T07:09:15.027Z,8.16
2023-03-21T07:12:16.784Z,8.17
2023-03-21T07:15:18.468Z,8.15
2023-03-21T07:18:20.249Z,8.10
2023-03-21T07:21:22.215Z,8.20
2023-03-21T07:24:23.874Z,8.46
2023-03-21T07:27:25.439Z,9.32
2023-03-21T07:30:27.226Z,9.59
2023-03-21T07:33:28.964Z,9.38
2023-03-21T07:36:30.532Z,9.25
2023-03-21T07:39:32.190Z,9.10
2023-03-21T07:42:33.987Z,9.11
2023-03-21T07:45:36.164Z,9.15
2023-03-21T07:48:37.839Z,9.17
2023-03-21T07:51:39.546Z,9.25
2023-03-21T07:54:41.069Z,9.28
2023-03-21T07:57:42.885Z,9.32
2023-03-21T08:00:44.493Z,9.28
2023-03-21T08:03:46.211Z,9.16
2023-03-21T08:06:47.949Z,9.11
2023-03-21T08:09:49.573Z,9.03
2023-03-21T08:12:51.357Z,8.99
2023-03-21T08:15:52.986Z,8.87
2023-03-21T08:18:54.658Z,8.74
2023-03-21T08:21:56.624Z,8.72
2023-03-21T08:24:58.181Z,8.68
2023-03-21T08:28:00.013Z,8.61
2023-03-21T08:31:01.703Z,8.59
2023-03-21T08:34:03.510Z,8.61
2023-03-21T08:37:05.064Z,8.61
2023-03-21T08:40:09.098Z,8.62
2023-03-21T08:43:11.206Z,8.56
2023-03-21T08:46:14.209Z,8.55
2023-03-21T08:49:15.831Z,8.60
2023-03-21T08:52:17.448Z,8.63
2023-03-21T08:55:19.662Z,8.63
2023-03-21T08:58:21.218Z,8.61
2023-03-21T09:01:22.869Z,8.58
2023-03-21T09:04:24.533Z,8.51
2023-03-21T09:07:26.238Z,8.42
2023-03-21T09:10:27.799Z,8.36
2023-03-21T09:13:29.485Z,8.37
2023-03-21T09:16:31.293Z,8.38
2023-03-21T09:19:33.335Z,8.35
2023-03-21T09:22:34.860Z,8.37
2023-03-21T09:25:37.415Z,8.40
2023-03-21T09:28:39.817Z,8.42
2023-03-21T09:31:41.415Z,8.46
2023-03-21T09:34:43.045Z,8.44
2023-03-21T09:37:45.615Z,8.48
2023-03-21T09:41:09.007Z,8.57
2023-03-21T09:44:20.804Z,8.66
2023-03-21T09:47:31.062Z,8.86
2023-03-21T09:50:35.174Z,9.18
2023-03-21T09:53:38.863Z,9.55
2023-03-21T09:56:41.202Z,9.81
2023-03-21T09:59:43.065Z,9.93
2023-03-21T10:02:48.120Z,9.97
2023-03-21T10:05:52.181Z,9.98
2023-03-21T10:08:57.083Z,9.99
2023-03-21T10:12:10.570Z,9.99
2023-03-21T10:15:16.792Z,10.08
2023-03-21T10:18:23.235Z,10.14
2023-03-21T10:21:56.536Z,10.16
2023-03-21T10:24:48.516Z,10.16
2023-03-21T10:27:51.077Z,10.18
2023-03-21T10:30:53.411Z,10.19
2023-03-21T10:33:56.972Z,10.24
2023-03-21T10:36:59.844Z,10.41
2023-03-21T10:40:01.544Z,10.60
2023-03-21T10:43:26.470Z,10.61
2023-03-21T10:46:28.268Z,10.52
2023-03-21T10:49:31.440Z,10.46
2023-03-21T10:52:41.509Z,10.32
2023-03-21T10:55:43.409Z,10.25
2023-03-21T10:58:46.201Z,10.21
2023-03-21T11:01:52.760Z,10.22
2023-03-21T11:04:54.969Z,10.31
2023-03-21T11:08:06.278Z,10.41
2023-03-21T11:11:10.133Z,10.40
2023-03-21T11:14:36.497Z,10.44
2023-03-21T11:17:39.008Z,10.62
2023-03-21T11:20:51.988Z,10.73
2023-03-21T11:23:57.334Z,10.82
2023-03-21T11:26:59.542Z,10.98
2023-03-21T11:30:02.058Z,10.91
2023-03-21T11:33:04.457Z,10.86
2023-03-21T11:36:28.583Z,10.90
2023-03-21T11:39:36.826Z,10.84
2023-03-21T11:42:44.366Z,10.74
2023-03-21T11:46:10.991Z,10.66
2023-03-21T11:49:12.719Z,10.59
2023-03-21T11:52:23.511Z,10.52
2023-03-21T11:55:35.304Z,10.49
2023-03-21T11:58:57.663Z,10.49
2023-03-21T12:02:36.962Z,10.54
2023-03-21T12:06:01.862Z,10.69
2023-03-21T12:09:25.670Z,10.80
2023-03-21T12:12:39.264Z,10.74
2023-03-21T12:15:48.718Z,10.69
2023-03-21T12:19:02.095Z,10.66
2023-03-21T12:22:04.208Z,10.59
2023-03-21T12:25:38.105Z,10.49
2023-03-21T12:28:45.660Z,10.36
2023-03-21T12:31:53.562Z,10.18
2023-03-21T12:35:16.827Z,9.99
2023-03-21T12:38:25.465Z,9.77
2023-03-21T12:41:36.195Z,9.54
2023-03-21T12:44:40.123Z,9.38
2023-03-21T12:47:44.130Z,9.25
2023-03-21T12:50:46.363Z,9.16
2023-03-21T12:53:57.582Z,9.11
2023-03-21T12:57:09.286Z,9.06
2023-03-21T13:00:15.862Z,8.99
2023-03-21T13:03:44.174Z,8.95
2023-03-21T13:06:47.409Z,8.87
2023-03-21T13:09:49.065Z,8.88
2023-03-21T13:13:12.458Z,8.89
2023-03-21T13:16:36.376Z,8.88
2023-03-21T13:19:50.178Z,8.87
2023-03-21T13:22:51.807Z,8.88
2023-03-21T13:25:55.146Z,8.84
2023-03-21T13:28:58.493Z,8.83
2023-03-21T13:32:14.725Z,8.83
2023-03-21T13:35:20.584Z,8.86
2023-03-21T13:38:29.368Z,8.97
2023-03-21T13:41:39.041Z,9.13
2023-03-21T13:44:44.400Z,9.28
2023-03-21T13:47:55.429Z,9.40
2023-03-21T13:51:04.820Z,9.53
2023-03-21T13:54:06.673Z,9.62
2023-03-21T13:57:21.427Z,9.67
2023-03-21T14:00:31.217Z,9.73
2023-03-21T14:03:35.220Z,9.71
2023-03-21T14:06:48.303Z,9.68
2023-03-21T14:09:52.690Z,9.60
2023-03-21T14:12:54.565Z,9.51
2023-03-21T14:16:13.054Z,9.43
2023-03-21T14:19:14.693Z,9.36
2023-03-21T14:22:16.849Z,9.33
2023-03-21T14:25:20.948Z,9.31
2023-03-21T14:28:28.826Z,9.29
2023-03-21T14:31:32.944Z,9.29
2023-03-21T14:34:35.909Z,9.29
2023-03-21T14:37:41.221Z,9.27
2023-03-21T14:40:48.343Z,9.24
2023-03-21T14:44:14.483Z,9.23
2023-03-21T14:47:21.508Z,9.23
2023-03-21T14:50:46.356Z,9.24
2023-03-21T14:53:48.232Z,9.23
2023-03-21T14:56:53.009Z,9.19
2023-03-21T14:59:58.219Z,9.16
2023-03-21T15:03:00.175Z,9.12
2023-03-21T15:06:02.105Z,9.09
2023-03-21T15:09:05.165Z,9.07
2023-03-21T15:12:08.529Z,9.06
2023-03-21T15:15:13.654Z,9.10
2023-03-21T15:18:19.316Z,9.10
2023-03-21T15:21:27.919Z,9.10
2023-03-21T15:24:32.881Z,9.14
2023-03-21T15:27:41.725Z,9.17
2023-03-21T15:30:51.301Z,9.16
2023-03-21T15:33:54.044Z,9.12
2023-03-21T15:37:02.183Z,9.04
2023-03-21T15:40:31.643Z,8.98
2023-03-21T15:43:40.647Z,8.95
2023-03-21T15:46:46.124Z,8.94
2023-03-21T15:49:54.066Z,8.93
2023-03-21T15:52:56.728Z,8.90
2023-03-21T15:55:59.199Z,8.88
2023-03-21T15:59:02.865Z,8.85
2023-03-21T16:02:05.086Z,8.84
2023-03-21T16:05:22.773Z,8.83
2023-03-21T16:08:28.348Z,8.80
2023-03-21T16:12:02.229Z,8.80
2023-03-21T16:15:04.163Z,8.79
2023-03-21T16:18:07.706Z,8.77
2023-03-21T16:21:13.041Z,8.74
2023-03-21T16:24:14.793Z,8.69
2023-03-21T16:27:17.757Z,8.63
2023-03-21T16:30:20.811Z,8.57
2023-03-21T16:33:22.620Z,8.51
2023-03-21T16:36:32.699Z,8.39
2023-03-21T16:39:34.483Z,8.22
2023-03-21T16:42:36.098Z,8.07
2023-03-21T16:45:38.189Z,7.95
2023-03-21T16:48:40.947Z,7.87
2023-03-21T16:51:42.829Z,7.78
2023-03-21T16:54:44.896Z,7.70
2023-03-21T16:57:47.146Z,7.62
2023-03-21T17:00:48.755Z,7.55
2023-03-21T17:03:50.184Z,7.49
2023-03-21T17:06:52.934Z,7.45
2023-03-21T17:09:54.552Z,7.40
2023-03-21T17:12:56.102Z,7.34
2023-03-21T17:15:57.817Z,7.22
2023-03-21T17:18:59.748Z,7.15
2023-03-21T17:22:01.451Z,7.16
2023-03-21T17:25:03.360Z,7.12
2023-03-21T17:28:05.233Z,7.07
2023-03-21T17:31:15.439Z,7.02
2023-03-21T17:34:17.558Z,6.99
2023-03-21T17:37:19.966Z,6.97
2023-03-21T17:40:25.465Z,6.94
2023-03-21T17:43:27.257Z,6.91
2023-03-21T17:46:29.436Z,6.84
2023-03-21T17:49:31.229Z,6.73
2023-03-21T17:52:32.947Z,6.65
2023-03-21T17:55:35.419Z,6.66
2023-03-21T17:58:37.103Z,6.67
2023-03-21T18:01:38.655Z,6.63
2023-03-21T18:04:40.449Z,6.59
2023-03-21T18:08:08.639Z,6.61
2023-03-21T18:11:05.545Z,6.67
2023-03-21T18:14:16.341Z,6.72
2023-03-21T18:17:20.210Z,6.68
2023-03-21T18:20:24.394Z,6.58
2023-03-21T18:23:26.640Z,6.50
2023-03-21T18:26:30.993Z,6.45
2023-03-21T18:32:55.386Z,6.43
2023-03-21T18:35:59.447Z,6.42
2023-03-21T18:39:01.595Z,6.45
2023-03-21T18:42:05.097Z,6.40
2023-03-21T18:45:10.210Z,6.37
2023-03-21T18:48:11.833Z,6.34
2023-03-21T18:51:13.684Z,6.23
2023-03-21T18:54:15.451Z,6.13
2023-03-21T18:57:36.826Z,6.12
2023-03-21T19:00:39.330Z,6.09
2023-03-21T19:03:43.144Z,6.13
2023-03-21T19:06:46.324Z,6.15
2023-03-21T19:10:09.482Z,6.21
2023-03-21T19:13:09.800Z,6.21
2023-03-21T19:16:11.805Z,6.15
2023-03-21T19:19:13.682Z,6.08
2023-03-21T19:22:16.696Z,6.06
2023-03-21T19:25:18.632Z,6.09
2023-03-21T19:28:20.300Z,6.07
2023-03-21T19:31:24.227Z,6.09
2023-03-21T19:34:26.011Z,6.15
2023-03-21T19:37:27.877Z,6.21
2023-03-21T19:40:29.498Z,6.25
2023-03-21T19:43:33.370Z,6.30
2023-03-21T19:46:35.260Z,6.30
2023-03-21T19:50:20.870Z,6.31
2023-03-21T19:52:58.866Z,6.31
2023-03-21T19:56:03.716Z,6.21
2023-03-21T19:59:06.818Z,6.18
2023-03-21T20:02:33.945Z,6.16
2023-03-21T20:05:32.485Z,6.09
2023-03-21T20:08:57.942Z,6.08
2023-03-21T20:11:56.635Z,6.07
2023-03-21T20:15:10.262Z,6.05
2023-03-21T20:18:18.241Z,6.12
2023-03-21T20:21:25.430Z,6.15
2023-03-21T20:24:27.409Z,6.06
2023-03-21T20:27:30.447Z,5.98
2023-03-21T20:30:32.307Z,5.97
2023-03-21T20:33:33.989Z,5.95
2023-03-21T20:36:40.812Z,5.97
2023-03-21T20:39:46.818Z,6.07
2023-03-21T20:42:49.106Z,6.13
2023-03-21T20:46:01.401Z,6.17
2023-03-21T20:49:03.698Z,6.23
2023-03-21T20:55:33.100Z,6.31
2023-03-21T20:58:59.335Z,6.31
2023-03-21T21:01:58.587Z,6.32
2023-03-21T21:08:22.021Z,6.34
2023-03-21T21:14:45.636Z,6.38
2023-03-21T21:18:07.420Z,6.40
2023-03-21T21:21:09.662Z,6.40
2023-03-21T21:24:11.376Z,6.40
2023-03-21T21:27:13.361Z,6.40
2023-03-21T21:30:15.257Z,6.40
2023-03-21T21:33:16.885Z,6.39
2023-03-21T21:36:18.446Z,6.38
2023-03-21T21:39:20.188Z,6.36
2023-03-21T21:42:21.750Z,6.34
2023-03-21T21:45:23.289Z,6.28
2023-03-21T21:48:33.871Z,6.21
2023-03-21T21:51:35.401Z,6.20
2023-03-21T21:54:37.104Z,6.20
2023-03-21T21:57:38.891Z,6.13
2023-03-21T22:00:40.919Z,6.04
2023-03-21T22:03:42.900Z,6.08
2023-03-21T22:06:44.845Z,6.11
2023-03-21T22:09:46.417Z,6.14
2023-03-21T22:12:48.130Z,6.16
2023-03-21T22:15:49.961Z,6.16
2023-03-21T22:18:51.571Z,6.14
2023-03-21T22:21:53.040Z,6.14
2023-03-21T22:24:54.764Z,6.15
2023-03-21T22:27:56.218Z,6.15
2023-03-21T22:30:57.940Z,6.10
2023-03-21T22:33:59.434Z,6.06
2023-03-21T22:37:01.124Z,6.04
2023-03-21T22:40:04.130Z,6.00
2023-03-21T22:43:05.860Z,6.00
2023-03-21T22:46:07.488Z,5.99
2023-03-21T22:49:09.102Z,5.97
2023-03-21T22:52:10.784Z,5.95
2023-03-21T22:55:12.454Z,5.92
2023-03-21T22:58:13.962Z,5.91
2023-03-21T23:01:15.583Z,5.88
2023-03-21T23:04:17.172Z,5.87
2023-03-21T23:07:18.915Z,5.87
2023-03-21T23:10:20.659Z,5.85
2023-03-21T23:13:22.674Z,5.81
2023-03-21T23:16:24.346Z,5.81
2023-03-21T23:19:27.262Z,5.83
2023-03-21T23:22:32.607Z,5.84
2023-03-21T23:25:34.349Z,5.83
2023-03-21T23:28:35.973Z,5.83
2023-03-21T23:31:37.575Z,5.79
2023-03-21T23:34:39.160Z,5.75
2023-03-21T23:37:40.644Z,5.72
2023-03-21T23:40:42.363Z,5.69
2023-03-21T23:43:43.913Z,5.70
2023-03-21T23:46:45.601Z,5.71
2023-03-21T23:49:47.124Z,5.69
2023-03-21T23:52:48.928Z,5.67
2023-03-21T23:55:50.869Z,5.65
2023-03-21T23:58:52.588Z,5.64
